Time;durP1;ratioP1;P1;durP2;ratioP2;P2;SDS_P1;SDS_P2;PMS_P1;PMS_P2;Temp;Humidity;BMP_temperature;BMP_pressure;BME280_temperature;BME280_humidity;BME280_pressure;Samples;Min_cycle;Max_cycle;Signal;HPM_P1;HPM_P2
2023/08/12 00:01:54;;;;;;;15.50;12.13;;;20.50;99.90;;;-144.05;90.35;56957.16;6124559;23;20067;-88
2023/08/12 00:04:20;;;;;;;25.45;18.38;;;20.50;99.90;;;-144.05;90.80;56935.91;6128348;23;20006;-90
2023/08/12 00:06:45;;;;;;;22.33;14.95;;;20.50;99.90;;;-144.05;91.10;56929.53;6132429;23;20068;-89
2023/08/12 00:09:11;;;;;;;24.95;17.38;;;20.40;99.90;;;-144.05;91.62;56942.28;6129608;23;20022;-88
2023/08/12 00:11:38;;;;;;;24.50;15.10;;;20.40;99.90;;;-144.05;91.49;56944.41;6130002;23;20010;-89
2023/08/12 00:14:04;;;;;;;19.83;13.95;;;20.30;99.90;;;-144.05;91.91;56929.53;6128927;23;20462;-87
2023/08/12 00:16:31;;;;;;;22.00;14.65;;;20.30;99.90;;;-144.05;92.37;56935.91;6126311;23;20009;-86
2023/08/12 00:18:57;;;;;;;22.15;14.52;;;20.30;99.90;;;-144.05;92.43;56938.03;6126026;23;20092;-88
2023/08/12 00:21:22;;;;;;;22.38;15.77;;;20.30;99.90;;;-144.05;93.12;56942.28;6101790;23;20470;-86
2023/08/12 00:23:49;;;;;;;11.43;9.70;;;20.30;99.90;;;-144.05;92.86;56916.81;6126287;23;20014;-88
2023/08/12 00:26:15;;;;;;;13.55;9.70;;;20.20;99.90;;;-144.05;92.87;56929.53;6125840;23;20014;-88
2023/08/12 00:28:41;;;;;;;11.95;9.43;;;20.20;99.90;;;-144.05;92.91;56923.19;6126039;23;20016;-89
2023/08/12 00:31:07;;;;;;;13.80;11.20;;;20.20;99.90;;;-144.05;93.03;56921.06;6124888;23;20018;-87
2023/08/12 00:33:34;;;;;;;17.33;13.82;;;20.20;99.90;;;-144.05;93.22;56942.28;6126881;23;20006;-85
2023/08/12 00:36:00;;;;;;;20.98;15.02;;;20.10;99.90;;;-144.05;93.47;56925.28;6100807;23;20061;-88
2023/08/12 00:38:26;;;;;;;18.02;14.05;;;20.10;99.90;;;-144.05;93.67;56910.44;6125065;23;20093;-88
2023/08/12 00:40:52;;;;;;;15.50;11.20;;;20.10;99.90;;;-144.05;93.58;56916.81;6124458;23;20022;-87
2023/08/12 00:43:18;;;;;;;16.02;10.82;;;20.10;99.90;;;-144.05;93.72;56929.53;6124867;23;20101;-85
2023/08/12 00:45:45;;;;;;;14.77;11.38;;;20.10;99.90;;;-144.05;93.65;56908.31;6124197;23;20017;-85
2023/08/12 00:48:11;;;;;;;20.23;14.35;;;20.10;99.90;;;-144.05;93.91;56908.31;6126017;23;20005;-86
2023/08/12 00:50:39;;;;;;;21.48;15.05;;;20.00;99.90;;;-144.05;94.23;56929.53;6125922;23;20519;-89
2023/08/12 00:53:06;;;;;;;14.55;10.35;;;20.10;99.90;;;-144.05;94.09;56921.06;6124490;23;20006;-89
2023/08/12 00:55:34;;;;;;;12.07;9.90;;;20.00;99.90;;;-144.05;94.13;56914.69;6123908;23;20008;-86
2023/08/12 00:58:02;;;;;;;12.63;10.60;;;20.00;99.90;;;-144.05;94.08;56940.16;6103901;23;20006;-86
2023/08/12 01:00:28;;;;;;;28.10;18.15;;;20.00;99.90;;;-144.05;94.51;56938.03;6130462;23;20018;-85
2023/08/12 01:02:56;;;;;;;33.42;23.38;;;20.00;99.90;;;-144.05;94.85;56931.66;6126404;23;20014;-86
2023/08/12 01:05:23;;;;;;;32.05;22.08;;;20.00;99.90;;;-144.05;95.01;56918.94;6128828;23;20010;-86
2023/08/12 01:07:49;;;;;;;28.85;22.52;;;20.00;99.90;;;-144.05;95.24;56929.53;6128213;23;20010;-85
2023/08/12 01:10:16;;;;;;;29.48;21.15;;;20.00;99.90;;;-144.05;95.48;56933.78;6127791;23;20008;-86
2023/08/12 01:13:38;;;;;;;29.27;20.92;;;19.90;99.90;;;-144.05;95.67;56927.41;6126680;23;20006;-82
2023/08/12 01:16:08;;;;;;;25.85;18.05;;;19.90;99.90;;;-144.05;95.40;56923.19;6099358;23;20032;-85
2023/08/12 01:18:38;;;;;;;26.95;19.10;;;19.90;99.90;;;-144.05;95.65;56916.81;6099226;23;20093;-86
2023/08/12 01:21:09;;;;;;;30.10;19.63;;;19.90;99.90;;;-144.05;95.54;56948.66;6125169;23;20006;-84
2023/08/12 01:23:35;;;;;;;30.52;19.98;;;19.80;99.90;;;-144.05;96.04;56910.44;6125229;23;20002;-84
2023/08/12 01:26:01;;;;;;;30.67;18.48;;;19.80;99.90;;;-144.05;95.51;56918.94;6098844;23;20013;-84
2023/08/12 01:28:26;;;;;;;31.73;21.67;;;19.80;99.90;;;-144.05;96.23;56940.16;6123273;23;20010;-82
2023/08/12 01:31:45;;;;;;;35.25;22.60;;;19.80;99.90;;;-144.05;96.67;56921.06;6125002;23;20395;-83
2023/08/12 01:34:46;;;;;;;32.45;21.85;;;19.80;99.90;;;-144.05;97.07;56929.53;6123269;23;20009;-85
2023/08/12 01:37:24;;;;;;;35.28;24.88;;;19.80;99.90;;;-144.05;97.08;56912.56;6123410;23;20013;-84
2023/08/12 01:39:54;;;;;;;33.63;24.65;;;19.80;99.90;;;-144.05;97.33;56925.28;6124918;23;20006;-86
2023/08/12 01:42:21;;;;;;;43.53;30.83;;;19.80;99.90;;;-144.05;97.87;56914.69;6125319;23;20017;-84
2023/08/12 01:44:49;;;;;;;41.42;26.90;;;19.80;99.90;;;-144.05;97.84;56938.03;6125023;23;20017;-82
2023/08/12 01:47:15;;;;;;;41.97;28.85;;;19.90;99.90;;;-144.05;97.99;56918.94;6123283;23;20006;-84
2023/08/12 01:49:41;;;;;;;47.28;28.95;;;19.90;99.90;;;-144.05;98.09;56918.94;6124743;23;20005;-82
2023/08/12 01:52:07;;;;;;;41.45;28.30;;;19.80;99.90;;;-144.05;97.97;56946.53;6124823;23;20440;-84
2023/08/12 01:54:34;;;;;;;44.28;28.80;;;19.90;99.90;;;-144.05;97.72;56946.53;6123259;23;20411;-84
2023/08/12 01:57:05;;;;;;;47.47;28.88;;;19.80;99.90;;;-144.05;97.76;56910.44;6098962;23;20062;-84
2023/08/12 01:59:32;;;;;;;39.30;26.65;;;19.80;99.90;;;-144.05;98.05;56921.06;6124668;23;20057;-84
2023/08/12 02:01:58;;;;;;;40.92;27.33;;;19.90;99.90;;;-144.05;97.91;56944.41;6124818;23;20002;-84
2023/08/12 02:04:26;;;;;;;38.72;26.17;;;19.90;99.90;;;-144.05;97.61;56950.78;6124548;23;20013;-84
2023/08/12 02:06:53;;;;;;;33.03;22.90;;;19.80;99.90;;;-144.05;97.80;56940.16;6124655;23;20012;-84
2023/08/12 02:09:19;;;;;;;32.13;21.05;;;19.90;99.90;;;-144.05;97.71;56921.06;6098616;23;20006;-82
2023/08/12 02:11:44;;;;;;;23.80;16.42;;;19.80;99.90;;;-144.05;97.66;56940.16;6124158;23;20021;-86
2023/08/12 02:14:11;;;;;;;23.38;16.75;;;19.80;99.90;;;-144.05;97.46;56912.56;6122892;23;20006;-83
2023/08/12 02:16:37;;;;;;;21.15;16.15;;;19.70;99.90;;;-144.05;97.55;56925.28;6124761;23;20010;-82
2023/08/12 02:19:03;;;;;;;23.13;15.85;;;19.60;99.90;;;-144.05;97.55;56925.28;6098571;23;20016;-84
2023/08/12 02:21:29;;;;;;;17.27;12.93;;;19.60;99.90;;;-144.05;97.25;56946.53;6122958;23;20012;-84
2023/08/12 02:23:55;;;;;;;19.60;14.25;;;19.60;99.90;;;-144.05;97.05;56914.69;6122909;23;20039;-84
2023/08/12 02:26:20;;;;;;;22.17;16.75;;;19.60;99.90;;;-144.05;97.07;56927.41;6124206;23;20402;-85
2023/08/12 02:28:46;;;;;;;29.75;17.85;;;19.60;99.90;;;-144.05;97.42;56916.81;6124452;23;20010;-84
2023/08/12 02:31:15;;;;;;;22.33;15.68;;;19.60;99.90;;;-144.05;97.26;56946.53;6099561;23;20053;-85
2023/08/12 02:33:40;;;;;;;26.80;19.90;;;19.60;99.90;;;-144.05;97.38;56914.69;6124947;23;20029;-83
2023/08/12 02:36:06;;;;;;;28.25;19.85;;;19.60;99.90;;;-144.05;98.19;56929.53;6124864;23;20006;-84
2023/08/12 02:38:32;;;;;;;29.45;20.30;;;19.60;99.90;;;-144.05;97.34;56929.53;6098548;23;20325;-87
2023/08/12 02:40:58;;;;;;;24.73;17.45;;;19.60;99.90;;;-144.05;97.23;56942.28;6098548;23;20018;-84
2023/08/12 02:43:24;;;;;;;29.73;19.67;;;19.60;99.90;;;-144.05;97.44;56910.44;6124307;23;20075;-86
2023/08/12 02:45:50;;;;;;;28.73;19.92;;;19.60;99.90;;;-144.05;97.71;56921.06;6098512;23;20092;-85
2023/08/12 02:48:16;;;;;;;26.95;19.73;;;19.60;99.90;;;-144.05;98.11;56929.53;6098305;23;20002;-84
2023/08/12 02:50:41;;;;;;;26.08;18.77;;;19.60;99.90;;;-144.05;97.81;56912.56;6122855;23;20076;-84
2023/08/12 02:53:08;;;;;;;25.00;16.80;;;19.60;99.90;;;-144.05;97.20;56929.53;6098478;23;20014;-86
2023/08/12 02:55:34;;;;;;;26.95;18.73;;;19.60;99.90;;;-144.05;97.31;56940.16;6098452;23;20336;-85
2023/08/12 02:58:01;;;;;;;24.42;18.98;;;19.60;99.90;;;-144.05;97.61;56940.16;6098665;23;20006;-86
2023/08/12 03:00:28;;;;;;;23.30;16.98;;;19.60;99.90;;;-144.05;97.46;56925.28;6126296;23;20033;-85
2023/08/12 03:02:54;;;;;;;21.88;15.20;;;19.70;99.90;;;-144.05;97.43;56927.41;6138238;23;20016;-82
2023/08/12 03:05:22;;;;;;;25.45;18.10;;;19.70;99.90;;;-144.05;97.57;56940.16;6149324;23;20018;-84
2023/08/12 03:07:49;;;;;;;27.58;19.70;;;19.70;99.90;;;-144.05;97.51;56916.81;6121530;23;20010;-84
2023/08/12 03:10:15;;;;;;;30.02;19.15;;;19.70;99.90;;;-144.05;97.56;56933.78;6141100;23;20014;-87
2023/08/12 03:12:41;;;;;;;23.65;16.75;;;19.70;99.90;;;-144.05;97.35;56940.16;6127030;23;20339;-86
2023/08/12 03:15:09;;;;;;;25.80;16.55;;;19.60;99.90;;;-144.05;97.47;56931.66;6124250;23;19998;-85
2023/08/12 03:17:38;;;;;;;22.83;17.33;;;19.60;99.90;;;-144.05;97.58;56908.31;6100050;23;20065;-86
2023/08/12 03:20:08;;;;;;;25.08;17.58;;;19.60;99.90;;;-144.05;97.66;56933.78;6124201;23;20014;-84
2023/08/12 03:22:37;;;;;;;23.58;18.63;;;19.60;99.90;;;-144.05;97.69;56940.16;6123763;23;20014;-85
2023/08/12 03:25:05;;;;;;;22.42;18.05;;;19.60;99.90;;;-144.05;97.53;56946.53;6134787;23;20340;-88
2023/08/12 03:27:31;;;;;;;22.10;17.15;;;19.60;99.90;;;-144.05;97.50;56942.28;6161368;23;20012;-87
2023/08/12 03:29:57;;;;;;;21.92;17.10;;;19.60;99.90;;;-144.05;97.33;56933.78;6160692;23;20079;-87
2023/08/12 03:32:25;;;;;;;29.77;19.58;;;19.60;99.90;;;-144.05;97.66;56929.53;6161769;23;20016;-85
2023/08/12 03:34:52;;;;;;;29.67;21.65;;;19.60;99.90;;;-144.05;97.89;56940.16;6160842;23;20407;-87
2023/08/12 03:37:19;;;;;;;23.80;18.45;;;19.60;99.90;;;-144.05;97.69;56927.41;6187547;23;20429;-87
2023/08/12 03:39:44;;;;;;;28.33;19.98;;;19.60;99.90;;;-144.05;97.58;56923.19;6161091;23;20029;-85
2023/08/12 03:42:10;;;;;;;24.20;20.40;;;19.70;99.90;;;-144.05;97.58;56921.06;6160845;23;20013;-85
2023/08/12 03:44:36;;;;;;;29.42;20.15;;;19.70;99.90;;;-144.05;97.76;56914.69;6161358;23;20009;-84
2023/08/12 03:47:02;;;;;;;24.23;19.80;;;19.60;99.90;;;-144.05;97.64;56935.91;6161880;23;20111;-88
2023/08/12 03:49:28;;;;;;;26.08;19.70;;;19.60;99.90;;;-144.05;97.69;56940.16;6187342;23;20035;-87
2023/08/12 03:51:54;;;;;;;26.73;18.55;;;19.60;99.90;;;-144.05;97.49;56935.91;6161263;23;20247;-87
2023/08/12 03:54:20;;;;;;;23.42;17.25;;;19.60;99.90;;;-144.05;97.46;56923.19;6187014;23;20001;-88
2023/08/12 03:56:46;;;;;;;20.55;16.77;;;19.60;99.90;;;-144.05;97.35;56963.53;6161691;23;20328;-88
2023/08/12 03:59:12;;;;;;;20.30;15.15;;;19.60;99.90;;;-144.05;97.18;56955.03;6188702;23;20016;-87
2023/08/12 04:01:37;;;;;;;22.70;16.90;;;19.60;99.90;;;-144.05;97.17;56935.91;6164966;23;20009;-88
2023/08/12 04:04:04;;;;;;;22.45;17.88;;;19.60;99.90;;;-144.05;97.58;56933.78;6166611;23;20009;-88
2023/08/12 04:06:30;;;;;;;19.05;14.95;;;19.60;99.90;;;-144.05;97.35;56946.53;6166019;23;20012;-89
2023/08/12 04:08:56;;;;;;;27.33;17.38;;;19.60;99.90;;;-144.05;97.56;56940.16;6174941;23;20060;-86
2023/08/12 04:11:21;;;;;;;21.33;16.13;;;19.60;99.90;;;-144.05;97.55;56944.41;6163258;23;20036;-88
2023/08/12 04:13:47;;;;;;;17.33;14.13;;;19.60;99.90;;;-144.05;97.34;56935.91;6159226;23;20379;-86
2023/08/12 04:16:13;;;;;;;17.00;11.77;;;19.60;99.90;;;-144.05;96.95;56923.19;6185714;23;20339;-86
2023/08/12 04:18:39;;;;;;;16.17;13.65;;;19.60;99.90;;;-144.05;96.86;56933.78;6159039;23;20009;-86
2023/08/12 04:21:05;;;;;;;18.65;14.32;;;19.60;99.90;;;-144.05;96.88;56969.91;6158916;23;20016;-87
2023/08/12 04:23:31;;;;;;;20.50;16.15;;;19.60;99.90;;;-144.05;96.77;56950.78;6159211;23;20435;-86
2023/08/12 04:25:56;;;;;;;21.52;15.52;;;19.60;99.90;;;-144.05;97.10;56940.16;6185456;23;20430;-87
2023/08/12 04:28:22;;;;;;;21.65;16.15;;;19.60;99.90;;;-144.05;97.06;56921.06;6159441;23;20058;-87
2023/08/12 04:30:52;;;;;;;26.10;16.88;;;19.60;99.90;;;-144.05;96.71;56923.19;6163529;23;20020;-86
2023/08/12 04:33:20;;;;;;;19.92;15.00;;;19.60;99.90;;;-144.05;96.79;56921.06;6180836;23;20005;-88
2023/08/12 04:35:46;;;;;;;17.65;13.77;;;19.60;99.90;;;-144.05;96.54;56950.78;6163290;23;20435;-88
2023/08/12 04:38:11;;;;;;;18.60;15.68;;;19.60;99.90;;;-144.05;96.75;56929.53;6161579;23;20016;-87
2023/08/12 04:40:42;;;;;;;18.95;14.35;;;19.60;99.90;;;-144.05;96.48;56935.91;6160851;23;20012;-89
2023/08/12 04:43:10;;;;;;;19.25;15.68;;;19.60;99.90;;;-144.05;96.95;56931.66;6160310;23;20013;-87
2023/08/12 04:45:36;;;;;;;20.55;15.90;;;19.60;99.90;;;-144.05;96.77;56946.53;6189128;23;20043;-87
2023/08/12 04:48:02;;;;;;;17.40;13.65;;;19.60;99.90;;;-144.05;96.44;56923.19;6160297;23;20470;-87
2023/08/12 04:50:34;;;;;;;18.13;13.88;;;19.60;99.90;;;-144.05;96.46;56923.19;6186088;23;20016;-87
2023/08/12 04:53:00;;;;;;;17.02;14.13;;;19.60;99.90;;;-144.05;96.46;56963.53;6159834;23;20005;-90
2023/08/12 04:55:27;;;;;;;18.52;14.40;;;19.70;99.90;;;-144.05;96.31;56950.78;6159654;23;20001;-85
2023/08/12 04:57:54;;;;;;;16.80;12.77;;;19.60;99.90;;;-144.05;96.35;56950.78;6160844;23;20063;-84
2023/08/12 05:00:21;;;;;;;17.75;13.52;;;19.60;99.90;;;-144.05;96.13;56950.78;6159361;23;20016;-87
2023/08/12 05:02:47;;;;;;;15.43;12.23;;;19.70;99.90;;;-144.05;96.05;56959.28;6162557;23;20032;-87
2023/08/12 05:05:13;;;;;;;17.65;13.88;;;19.70;99.90;;;-144.05;96.58;56942.28;6164626;23;20092;-86
2023/08/12 05:07:39;;;;;;;16.20;12.55;;;19.70;99.90;;;-144.05;96.49;56942.28;6165155;23;20015;-84
2023/08/12 05:10:06;;;;;;;18.35;13.77;;;19.70;99.90;;;-144.05;96.22;56963.53;6165452;23;20088;-88
2023/08/12 05:12:32;;;;;;;11.95;10.73;;;19.70;99.90;;;-144.05;96.14;56931.66;6166002;23;20016;-84
2023/08/12 05:14:58;;;;;;;14.05;12.07;;;19.70;99.90;;;-144.05;96.50;56955.03;6193262;23;20001;-87
2023/08/12 05:17:24;;;;;;;17.55;10.60;;;19.60;99.90;;;-144.05;96.11;56940.16;6191884;23;20059;-87
2023/08/12 05:19:50;;;;;;;16.58;12.82;;;19.70;99.90;;;-144.05;95.96;56929.53;6164858;23;20015;-85
2023/08/12 05:22:16;;;;;;;13.88;11.55;;;19.70;99.90;;;-144.05;95.88;56940.16;6190978;23;20415;-83
2023/08/12 05:24:42;;;;;;;15.38;12.07;;;19.70;99.90;;;-144.05;95.91;56938.03;6164095;23;20019;-86
2023/08/12 05:27:08;;;;;;;16.42;12.13;;;19.70;99.90;;;-144.05;95.86;56933.78;6164480;23;20004;-84
2023/08/12 05:29:34;;;;;;;12.55;9.93;;;19.70;99.90;;;-144.05;95.85;56942.28;6192210;23;20005;-85
2023/08/12 05:31:59;;;;;;;16.38;13.13;;;19.80;99.90;;;-144.05;95.91;56942.28;6190597;23;20028;-84
2023/08/12 05:34:26;;;;;;;14.35;10.40;;;19.80;99.90;;;-144.05;95.73;56950.78;6162859;23;20005;-87
2023/08/12 05:36:52;;;;;;;13.15;10.88;;;19.80;99.90;;;-144.05;95.68;56944.41;6162833;23;20514;-86
2023/08/12 05:39:18;;;;;;;13.93;12.07;;;19.80;99.90;;;-144.05;95.57;56946.53;6189478;23;20061;-86
2023/08/12 05:41:45;;;;;;;16.95;12.27;;;19.90;99.90;;;-144.05;95.32;56933.78;6165982;23;20036;-86
2023/08/12 05:44:11;;;;;;;14.05;10.73;;;19.90;99.90;;;-144.05;95.18;56938.03;6167026;23;20019;-90
2023/08/12 05:46:37;;;;;;;10.45;8.60;;;20.00;99.90;;;-144.05;95.08;56933.78;6162801;23;20029;-86
2023/08/12 05:49:03;;;;;;;12.88;10.50;;;20.10;99.90;;;-144.05;94.67;56935.91;6162468;23;20504;-88
2023/08/12 05:51:28;;;;;;;13.23;10.45;;;20.20;99.90;;;-144.05;93.98;56948.66;6162814;23;20001;-86
2023/08/12 05:53:54;;;;;;;17.05;10.27;;;20.20;99.90;;;-144.05;93.47;56965.66;6162860;23;20009;-86
2023/08/12 05:56:20;;;;;;;9.65;8.30;;;20.20;99.90;;;-144.05;93.62;56942.28;6170273;23;20450;-84
2023/08/12 05:58:46;;;;;;;13.65;9.30;;;20.20;99.90;;;-144.05;93.22;56955.03;6189751;23;20009;-84
2023/08/12 06:01:12;;;;;;;10.32;8.25;;;20.20;99.90;;;-144.05;93.34;56946.53;6162133;23;20005;-85
2023/08/12 06:03:37;;;;;;;8.90;7.07;;;20.20;99.90;;;-144.05;92.83;56967.78;6161114;23;20005;-86
2023/08/12 06:06:03;;;;;;;10.30;8.18;;;20.20;99.90;;;-144.05;92.79;56955.03;6185446;23;20335;-86
2023/08/12 06:08:29;;;;;;;11.98;8.77;;;20.20;99.90;;;-144.05;92.08;56959.28;6160839;23;20005;-85
2023/08/12 06:10:55;;;;;;;11.38;7.80;;;20.20;99.90;;;-144.05;91.98;56950.78;6198320;23;20005;-87
2023/08/12 06:13:21;;;;;;;10.20;8.40;;;20.20;99.90;;;-144.05;91.90;56959.28;6166143;23;20446;-86
2023/08/12 06:15:46;;;;;;;9.43;7.38;;;20.20;99.90;;;-144.05;91.58;56942.28;6162593;23;20013;-86
2023/08/12 06:18:12;;;;;;;9.32;7.15;;;20.20;99.90;;;-144.05;91.21;56965.66;6188174;23;20300;-86
2023/08/12 06:20:38;;;;;;;7.40;6.03;;;20.20;99.90;;;-144.05;91.43;56933.78;6187601;23;20005;-87
2023/08/12 06:23:04;;;;;;;10.88;7.35;;;20.20;99.90;;;-144.05;91.51;56967.78;6187602;23;20064;-83
2023/08/12 06:25:30;;;;;;;7.65;6.85;;;20.20;99.90;;;-144.05;91.60;56959.28;6181907;23;20010;-85
2023/08/12 06:27:58;;;;;;;10.57;7.15;;;20.30;99.90;;;-144.05;92.13;56931.66;6156661;23;20013;-87
2023/08/12 06:30:24;;;;;;;9.63;7.30;;;20.30;99.90;;;-144.05;91.88;56955.03;6156335;23;20021;-84
2023/08/12 06:32:49;;;;;;;10.98;7.72;;;20.40;99.90;;;-144.05;91.75;56986.91;6157558;23;20005;-83
2023/08/12 06:35:15;;;;;;;10.63;6.72;;;20.40;99.90;;;-144.05;91.02;56931.66;6157002;23;20331;-82
2023/08/12 06:37:41;;;;;;;9.00;6.65;;;20.40;99.90;;;-144.05;90.85;56967.78;6156129;23;20083;-84
2023/08/12 06:40:08;;;;;;;9.02;6.72;;;20.40;99.90;;;-144.05;91.00;56976.28;6160594;23;19997;-83
2023/08/12 06:42:34;;;;;;;8.20;6.25;;;20.40;99.90;;;-144.05;91.50;56944.41;6157279;23;20032;-83
2023/08/12 06:45:00;;;;;;;8.52;6.05;;;20.40;99.90;;;-144.05;91.75;56940.16;6155640;23;20006;-84
2023/08/12 06:47:27;;;;;;;8.90;5.22;;;20.40;99.90;;;-144.05;91.81;56957.16;6155926;23;20025;-84
2023/08/12 06:49:53;;;;;;;13.40;5.47;;;20.40;99.90;;;-144.05;92.08;56963.53;6157130;23;20439;-86
2023/08/12 06:52:19;;;;;;;6.50;4.75;;;20.30;99.90;;;-144.05;92.04;56952.91;6158003;23;20439;-85
2023/08/12 06:54:45;;;;;;;6.72;5.47;;;20.30;99.90;;;-144.05;92.41;56948.66;6159612;23;20005;-86
2023/08/12 06:57:11;;;;;;;7.00;5.20;;;20.30;99.90;;;-144.05;92.02;56942.28;6158398;23;20061;-88
2023/08/12 06:59:38;;;;;;;7.50;4.90;;;20.20;99.90;;;-144.05;93.00;56935.91;6162102;23;20009;-88
2023/08/12 07:02:06;;;;;;;6.93;4.85;;;20.20;99.90;;;-144.05;92.44;56940.16;6161942;23;20420;-87
2023/08/12 07:04:32;;;;;;;6.80;5.00;;;20.10;99.90;;;-144.05;92.75;56950.78;6163604;23;20017;-88
2023/08/12 07:07:00;;;;;;;9.35;5.10;;;20.10;99.90;;;-144.05;93.82;56965.66;6161218;23;20336;-87
2023/08/12 07:09:26;;;;;;;8.57;5.35;;;20.10;99.90;;;-144.05;93.26;56963.53;6160082;23;20131;-87
2023/08/12 07:11:51;;;;;;;5.85;4.35;;;20.10;99.90;;;-144.05;93.54;56935.91;6158473;23;20399;-87
2023/08/12 07:14:17;;;;;;;8.05;4.38;;;20.00;99.90;;;-144.05;94.41;56959.28;6156951;23;20005;-86
2023/08/12 07:16:43;;;;;;;7.60;4.65;;;20.00;99.90;;;-144.05;95.27;56957.16;6158929;23;20006;-84
2023/08/12 07:19:10;;;;;;;6.43;4.50;;;20.00;99.90;;;-144.05;95.48;56948.66;6156974;23;20339;-84
2023/08/12 07:21:36;;;;;;;6.90;4.32;;;20.00;99.90;;;-144.05;94.84;56933.78;6157046;23;20013;-85
2023/08/12 07:24:02;;;;;;;7.22;4.75;;;20.00;99.90;;;-144.05;94.14;56950.78;6157125;23;20088;-85
2023/08/12 07:26:28;;;;;;;9.00;5.32;;;20.00;99.90;;;-144.05;94.10;56948.66;6157342;23;20328;-87
2023/08/12 07:28:54;;;;;;;6.40;4.88;;;20.00;99.90;;;-144.05;93.47;56969.91;6157461;23;20017;-85
2023/08/12 07:31:20;;;;;;;8.00;4.40;;;19.90;99.90;;;-144.05;94.26;56955.03;6158919;23;20012;-85
2023/08/12 07:33:45;;;;;;;8.80;5.22;;;19.90;99.90;;;-144.05;94.11;56946.53;6158928;23;20001;-88
2023/08/12 07:36:11;;;;;;;10.38;5.30;;;19.90;99.90;;;-144.05;94.36;56942.28;6159949;23;20006;-86
2023/08/12 07:38:37;;;;;;;8.10;4.35;;;19.90;99.90;;;-144.05;94.65;56957.16;6159129;23;20029;-85
2023/08/12 07:41:03;;;;;;;9.73;4.90;;;19.90;99.90;;;-144.05;95.02;56931.66;6159772;23;20017;-87
2023/08/12 07:43:29;;;;;;;9.43;4.95;;;19.90;99.90;;;-144.05;95.58;56933.78;6164782;23;20005;-90
2023/08/12 07:45:55;;;;;;;6.85;4.47;;;20.00;99.90;;;-144.05;95.38;56946.53;6163354;23;20432;-92
2023/08/12 07:48:21;;;;;;;6.13;4.40;;;20.00;99.90;;;-144.05;95.19;56948.66;6167431;23;20073;-91
2023/08/12 07:50:54;;;;;;;6.35;4.28;;;20.00;99.90;;;-144.05;95.15;56957.16;6171485;23;20114;-89
2023/08/12 07:53:20;;;;;;;7.07;4.43;;;20.10;99.90;;;-144.05;94.89;56952.91;6163815;23;20002;-88
2023/08/12 07:55:46;;;;;;;5.85;4.22;;;20.10;99.90;;;-144.05;94.41;56967.78;6161772;23;20093;-87
2023/08/12 07:58:12;;;;;;;7.57;4.15;;;20.20;99.90;;;-144.05;94.60;56963.53;6160260;23;20010;-87
2023/08/12 08:00:39;;;;;;;5.47;3.72;;;20.30;99.90;;;-144.05;94.57;56942.28;6184972;23;20013;-85
2023/08/12 08:03:05;;;;;;;5.15;4.15;;;20.20;99.90;;;-144.05;94.14;56955.03;6161333;23;20291;-86
2023/08/12 08:05:31;;;;;;;5.60;4.00;;;20.30;99.90;;;-144.05;93.90;56942.28;6162783;23;20041;-86
2023/08/12 08:07:57;;;;;;;6.97;3.75;;;20.40;99.90;;;-144.05;92.52;56969.91;6164102;23;20033;-88
2023/08/12 08:10:23;;;;;;;5.50;3.90;;;20.50;99.90;;;-144.05;91.42;56982.66;6162935;23;20090;-87
2023/08/12 08:12:49;;;;;;;4.72;3.13;;;20.70;99.90;;;-144.05;90.74;56963.53;6158034;23;20009;-85
2023/08/12 08:15:15;;;;;;;4.13;2.85;;;20.80;99.90;;;-144.05;89.24;56972.03;6159505;23;20516;-87
2023/08/12 08:17:41;;;;;;;5.90;3.85;;;20.90;99.90;;;-144.05;89.59;56980.53;6159196;23;20009;-87
2023/08/12 08:20:08;;;;;;;5.07;3.08;;;21.00;99.90;;;-144.05;88.46;56978.41;6159270;23;20025;-85
2023/08/12 08:22:33;;;;;;;5.40;3.13;;;21.10;99.90;;;-144.05;88.20;56974.16;6158431;23;20010;-86
2023/08/12 08:25:00;;;;;;;4.32;2.83;;;21.30;99.90;;;-144.05;88.29;56963.53;6164471;23;20016;-88
2023/08/12 08:27:26;;;;;;;3.35;2.20;;;21.40;99.90;;;-144.05;87.71;56946.53;6162956;23;20013;-87
2023/08/12 08:29:51;;;;;;;3.22;2.33;;;21.50;99.90;;;-144.05;86.65;57006.00;6189464;23;20015;-87
2023/08/12 08:32:17;;;;;;;5.63;2.35;;;21.50;99.90;;;-144.05;86.52;56974.16;6188680;23;20312;-85
2023/08/12 08:34:43;;;;;;;3.15;2.30;;;21.60;99.90;;;-144.05;85.56;56978.41;6162414;23;20005;-85
2023/08/12 08:37:09;;;;;;;3.95;2.45;;;21.50;99.90;;;-144.05;86.57;56978.41;6161903;23;20005;-84
2023/08/12 08:39:35;;;;;;;4.68;2.40;;;21.60;99.90;;;-144.05;85.81;56965.66;6188104;23;20016;-86
2023/08/12 08:42:06;;;;;;;4.15;2.17;;;21.80;99.90;;;-144.05;84.91;56991.13;6166510;23;20349;-83
2023/08/12 08:44:36;;;;;;;2.60;1.60;;;22.20;99.90;;;-144.05;83.17;57010.25;6192329;23;20041;-86
2023/08/12 08:47:04;;;;;;;3.42;2.53;;;22.30;99.90;;;-144.05;83.30;56997.50;6165864;23;20016;-86
2023/08/12 08:49:31;;;;;;;2.60;2.20;;;22.40;99.90;;;-144.05;84.51;56999.63;6191653;23;20016;-83
2023/08/12 08:52:00;;;;;;;3.78;2.13;;;22.20;99.90;;;-144.05;84.21;57008.13;6191073;23;20049;-84
2023/08/12 08:54:28;;;;;;;4.75;2.08;;;22.10;99.90;;;-144.05;84.02;56986.91;6190411;23;20009;-85
2023/08/12 08:56:54;;;;;;;3.90;2.28;;;21.80;99.90;;;-144.05;84.47;56972.03;6192159;23;20001;-86
2023/08/12 08:59:21;;;;;;;3.63;2.33;;;21.70;99.90;;;-144.05;84.76;56967.78;6167207;23;20032;-87
2023/08/12 09:01:51;;;;;;;3.70;2.17;;;21.60;99.90;;;-144.05;85.41;56969.91;6192674;23;20005;-84
2023/08/12 09:04:21;;;;;;;3.08;2.58;;;21.50;99.90;;;-144.05;85.31;56984.78;6164978;23;20005;-83
2023/08/12 09:06:51;;;;;;;3.20;2.25;;;21.40;99.90;;;-144.05;87.17;56984.78;6163766;23;20087;-87
2023/08/12 09:09:23;;;;;;;4.75;2.38;;;21.40;99.90;;;-144.05;86.54;57014.50;6188405;23;20029;-84
2023/08/12 09:11:52;;;;;;;4.40;2.65;;;21.50;99.90;;;-144.05;85.64;56980.53;6189970;23;20005;-83
2023/08/12 09:14:19;;;;;;;4.30;2.72;;;21.70;99.90;;;-144.05;84.96;56978.41;6189370;23;20005;-86
2023/08/12 09:16:45;;;;;;;4.13;2.75;;;21.80;99.90;;;-144.05;83.94;57010.25;6188003;23;20056;-84
2023/08/12 09:19:12;;;;;;;3.80;2.72;;;21.80;99.90;;;-144.05;84.56;57001.75;6191628;23;20029;-86
2023/08/12 09:21:38;;;;;;;5.60;2.55;;;21.80;99.90;;;-144.05;84.33;56982.66;6191275;23;20005;-88
2023/08/12 09:24:05;;;;;;;3.00;2.50;;;21.80;99.90;;;-144.05;84.29;56995.38;6167081;23;20482;-85
2023/08/12 09:26:30;;;;;;;2.78;2.45;;;21.70;99.90;;;-144.05;84.89;56993.25;6172508;23;20025;-86
2023/08/12 09:29:00;;;;;;;3.17;2.42;;;21.70;99.90;;;-144.05;83.58;56984.78;6165671;23;20069;-86
2023/08/12 09:31:32;;;;;;;3.10;2.10;;;21.80;99.90;;;-144.05;84.82;57010.25;6173251;23;20005;-88
2023/08/12 09:34:06;;;;;;;2.40;2.00;;;21.90;99.90;;;-144.05;83.93;57003.88;6193895;23;20060;-86
2023/08/12 09:36:33;;;;;;;2.33;1.77;;;22.10;99.90;;;-144.05;83.66;56997.50;6188135;23;20002;-85
2023/08/12 09:38:59;;;;;;;2.90;2.00;;;22.00;99.90;;;-144.05;84.44;57023.00;6137445;23;20444;-87
2023/08/12 09:41:30;;;;;;;5.57;2.03;;;21.90;99.90;;;-144.05;85.32;56991.13;6137506;23;20014;-88
2023/08/12 09:43:59;;;;;;;3.47;1.90;;;21.90;99.90;;;-144.05;84.96;56993.25;6132022;23;20017;-87
2023/08/12 09:46:26;;;;;;;2.58;1.65;;;21.90;99.90;;;-144.05;83.01;56978.41;6131319;23;20064;-85
2023/08/12 09:48:55;;;;;;;2.15;1.95;;;22.00;99.90;;;-144.05;84.92;56995.38;6134779;23;20010;-88
2023/08/12 09:51:24;;;;;;;2.78;1.85;;;22.20;99.90;;;-144.05;83.94;57012.38;6140442;23;20002;-87
2023/08/12 09:53:51;;;;;;;3.00;1.67;;;22.20;99.90;;;-144.05;82.32;56995.38;6133427;23;20010;-88
2023/08/12 09:56:28;;;;;;;3.50;1.92;;;22.30;99.90;;;-144.05;82.84;56963.53;6134259;23;20059;-85
2023/08/12 09:58:56;;;;;;;3.78;2.00;;;22.40;99.90;;;-144.05;81.19;57018.75;6139187;23;20013;-88